sensor_id;sensor_type;location;lat;lon;timestamp;pressure;altitude;pressure_sealevel;temperature;humidity
8051;BME280;4068;42.158;24.732;2023-03-01T00:00:14;100454.63;;;5.97;100.00
8051;BME280;4068;42.158;24.732;2023-03-01T00:02:39;100451.16;;;5.95;100.00
8051;BME280;4068;42.158;24.732;2023-03-01T00:05:05;100455.81;;;5.90;100.00
8051;BME280;4068;42.158;24.732;2023-03-01T00:07:32;100452.84;;;5.98;100.00
8051;BME280;4068;42.158;24.732;2023-03-01T00:09:57;100447.75;;;6.12;100.00
8051;BME280;4068;42.158;24.732;2023-03-01T00:12:23;100450.84;;;6.03;100.00
8051;BME280;4068;42.158;24.732;2023-03-01T00:14:48;100425.97;;;5.90;100.00
8051;BME280;4068;42.158;24.732;2023-03-01T00:17:14;100448.00;;;6.08;100.00
8051;BME280;4068;42.158;24.732;2023-03-01T00:19:39;100427.75;;;5.89;100.00
8051;BME280;4068;42.158;24.732;2023-03-01T00:22:05;100451.41;;;6.10;100.00
8051;BME280;4068;42.158;24.732;2023-03-01T00:24:30;100449.72;;;6.09;100.00
8051;BME280;4068;42.158;24.732;2023-03-01T00:26:56;100444.97;;;6.15;100.00
8051;BME280;4068;42.158;24.732;2023-03-01T00:29:23;100443.50;;;6.10;100.00
8051;BME280;4068;42.158;24.732;2023-03-01T00:31:49;100441.09;;;6.05;100.00
8051;BME280;4068;42.158;24.732;2023-03-01T00:34:14;100454.41;;;6.02;100.00
8051;BME280;4068;42.158;24.732;2023-03-01T00:36:40;100445.13;;;6.12;100.00
8051;BME280;4068;42.158;24.732;2023-03-01T00:39:10;100444.22;;;6.13;100.00
8051;BME280;4068;42.158;24.732;2023-03-01T00:41:36;100444.63;;;6.23;100.00
8051;BME280;4068;42.158;24.732;2023-03-01T00:44:02;100433.81;;;6.10;100.00
8051;BME280;4068;42.158;24.732;2023-03-01T00:46:27;100421.34;;;5.95;100.00
8051;BME280;4068;42.158;24.732;2023-03-01T00:48:55;100428.16;;;6.00;100.00
8051;BME280;4068;42.158;24.732;2023-03-01T00:51:26;100418.66;;;5.96;100.00
8051;BME280;4068;42.158;24.732;2023-03-01T00:53:54;100412.97;;;6.05;100.00
8051;BME280;4068;42.158;24.732;2023-03-01T00:56:20;100408.50;;;6.08;100.00
8051;BME280;4068;42.158;24.732;2023-03-01T00:58:46;100399.03;;;6.03;100.00
8051;BME280;4068;42.158;24.732;2023-03-01T01:01:23;100394.41;;;6.09;100.00
8051;BME280;4068;42.158;24.732;2023-03-01T01:04:11;100409.09;;;6.13;100.00
8051;BME280;4068;42.158;24.732;2023-03-01T01:06:42;100406.53;;;6.11;100.00
8051;BME280;4068;42.158;24.732;2023-03-01T01:09:09;100376.19;;;5.85;100.00
8051;BME280;4068;42.158;24.732;2023-03-01T01:11:43;100411.97;;;6.08;100.00
8051;BME280;4068;42.158;24.732;2023-03-01T01:14:08;100412.03;;;6.07;100.00
8051;BME280;4068;42.158;24.732;2023-03-01T01:16:34;100396.41;;;6.03;100.00
8051;BME280;4068;42.158;24.732;2023-03-01T01:18:59;100412.59;;;6.13;100.00
8051;BME280;4068;42.158;24.732;2023-03-01T01:21:25;100408.97;;;6.16;100.00
8051;BME280;4068;42.158;24.732;2023-03-01T01:23:52;100365.03;;;5.99;100.00
8051;BME280;4068;42.158;24.732;2023-03-01T01:26:28;100380.94;;;5.96;100.00
8051;BME280;4068;42.158;24.732;2023-03-01T01:28:54;100406.91;;;6.03;100.00
8051;BME280;4068;42.158;24.732;2023-03-01T01:31:21;100404.63;;;6.15;100.00
8051;BME280;4068;42.158;24.732;2023-03-01T01:33:49;100391.88;;;6.05;100.00
8051;BME280;4068;42.158;24.732;2023-03-01T01:36:15;100400.34;;;6.12;100.00
8051;BME280;4068;42.158;24.732;2023-03-01T01:38:41;100400.50;;;6.09;100.00
8051;BME280;4068;42.158;24.732;2023-03-01T01:41:08;100367.13;;;5.91;100.00
8051;BME280;4068;42.158;24.732;2023-03-01T01:43:39;100396.25;;;6.07;100.00
8051;BME280;4068;42.158;24.732;2023-03-01T01:46:31;100394.47;;;6.07;100.00
8051;BME280;4068;42.158;24.732;2023-03-01T01:49:00;100406.63;;;6.10;100.00
8051;BME280;4068;42.158;24.732;2023-03-01T01:51:35;100398.56;;;6.13;100.00
8051;BME280;4068;42.158;24.732;2023-03-01T01:54:11;100392.84;;;6.04;100.00
8051;BME280;4068;42.158;24.732;2023-03-01T01:56:41;100360.06;;;5.91;100.00
8051;BME280;4068;42.158;24.732;2023-03-01T01:59:09;100382.00;;;6.11;100.00
8051;BME280;4068;42.158;24.732;2023-03-01T02:01:36;100363.06;;;6.02;100.00
8051;BME280;4068;42.158;24.732;2023-03-01T02:04:01;100385.56;;;6.10;100.00
8051;BME280;4068;42.158;24.732;2023-03-01T02:06:31;100389.81;;;6.12;100.00
8051;BME280;4068;42.158;24.732;2023-03-01T02:09:03;100387.91;;;6.16;100.00
8051;BME280;4068;42.158;24.732;2023-03-01T02:11:31;100393.28;;;6.13;100.00
8051;BME280;4068;42.158;24.732;2023-03-01T02:13:57;100376.16;;;6.04;100.00
8051;BME280;4068;42.158;24.732;2023-03-01T02:16:22;100390.28;;;6.03;100.00
8051;BME280;4068;42.158;24.732;2023-03-01T02:18:49;100388.41;;;6.05;100.00
8051;BME280;4068;42.158;24.732;2023-03-01T02:23:54;100346.16;;;5.89;100.00
8051;BME280;4068;42.158;24.732;2023-03-01T02:26:28;100379.75;;;6.03;100.00
8051;BME280;4068;42.158;24.732;2023-03-01T02:28:57;100384.13;;;6.02;100.00
8051;BME280;4068;42.158;24.732;2023-03-01T02:31:22;100380.00;;;5.97;100.00
8051;BME280;4068;42.158;24.732;2023-03-01T02:34:09;100373.88;;;5.96;100.00
8051;BME280;4068;42.158;24.732;2023-03-01T02:36:42;100386.22;;;5.96;100.00
8051;BME280;4068;42.158;24.732;2023-03-01T02:39:13;100382.59;;;5.98;100.00
8051;BME280;4068;42.158;24.732;2023-03-01T02:41:45;100372.31;;;5.92;100.00
8051;BME280;4068;42.158;24.732;2023-03-01T02:44:12;100374.22;;;5.88;100.00
8051;BME280;4068;42.158;24.732;2023-03-01T02:46:43;100386.31;;;5.93;100.00
8051;BME280;4068;42.158;24.732;2023-03-01T02:49:19;100363.94;;;5.84;100.00
8051;BME280;4068;42.158;24.732;2023-03-01T02:55:06;100377.44;;;5.95;100.00
8051;BME280;4068;42.158;24.732;2023-03-01T02:57:35;100374.31;;;5.87;100.00
8051;BME280;4068;42.158;24.732;2023-03-01T03:00:08;100378.50;;;5.91;100.00
8051;BME280;4068;42.158;24.732;2023-03-01T03:02:35;100369.03;;;5.87;100.00
8051;BME280;4068;42.158;24.732;2023-03-01T03:05:11;100377.31;;;5.79;100.00
8051;BME280;4068;42.158;24.732;2023-03-01T03:07:41;100371.97;;;5.81;100.00
8051;BME280;4068;42.158;24.732;2023-03-01T03:10:10;100374.63;;;5.81;100.00
8051;BME280;4068;42.158;24.732;2023-03-01T03:12:37;100376.31;;;5.82;100.00
8051;BME280;4068;42.158;24.732;2023-03-01T03:15:03;100375.34;;;5.84;100.00
8051;BME280;4068;42.158;24.732;2023-03-01T03:17:35;100364.88;;;5.83;100.00
8051;BME280;4068;42.158;24.732;2023-03-01T03:20:02;100367.72;;;5.78;100.00
8051;BME280;4068;42.158;24.732;2023-03-01T03:22:29;100370.91;;;5.85;100.00
8051;BME280;4068;42.158;24.732;2023-03-01T03:24:55;100359.72;;;5.80;100.00
8051;BME280;4068;42.158;24.732;2023-03-01T03:27:20;100358.97;;;5.78;100.00
8051;BME280;4068;42.158;24.732;2023-03-01T03:29:45;100364.16;;;5.79;100.00
8051;BME280;4068;42.158;24.732;2023-03-01T03:32:11;100376.19;;;5.85;100.00
8051;BME280;4068;42.158;24.732;2023-03-01T03:34:36;100376.09;;;5.86;100.00
8051;BME280;4068;42.158;24.732;2023-03-01T03:37:02;100368.03;;;5.90;100.00
8051;BME280;4068;42.158;24.732;2023-03-01T03:39:27;100374.72;;;5.97;100.00
8051;BME280;4068;42.158;24.732;2023-03-01T03:41:54;100373.84;;;5.98;100.00
8051;BME280;4068;42.158;24.732;2023-03-01T03:44:20;100370.69;;;6.09;100.00
8051;BME280;4068;42.158;24.732;2023-03-01T03:46:45;100358.69;;;6.20;100.00
8051;BME280;4068;42.158;24.732;2023-03-01T03:49:11;100344.44;;;6.07;100.00
8051;BME280;4068;42.158;24.732;2023-03-01T03:51:36;100341.84;;;6.05;100.00
8051;BME280;4068;42.158;24.732;2023-03-01T03:54:03;100350.00;;;6.18;100.00
8051;BME280;4068;42.158;24.732;2023-03-01T03:56:28;100359.28;;;6.08;100.00
8051;BME280;4068;42.158;24.732;2023-03-01T03:58:54;100365.78;;;6.01;100.00
8051;BME280;4068;42.158;24.732;2023-03-01T04:01:19;100366.59;;;6.03;100.00
8051;BME280;4068;42.158;24.732;2023-03-01T04:03:45;100357.38;;;5.93;100.00
8051;BME280;4068;42.158;24.732;2023-03-01T04:06:13;100367.72;;;5.97;100.00
8051;BME280;4068;42.158;24.732;2023-03-01T04:08:38;100356.59;;;5.91;100.00
8051;BME280;4068;42.158;24.732;2023-03-01T04:11:05;100358.31;;;5.92;100.00
8051;BME280;4068;42.158;24.732;2023-03-01T04:13:50;100354.19;;;5.86;100.00
8051;BME280;4068;42.158;24.732;2023-03-01T04:16:16;100361.91;;;5.72;100.00
8051;BME280;4068;42.158;24.732;2023-03-01T04:18:43;100367.50;;;5.83;100.00
8051;BME280;4068;42.158;24.732;2023-03-01T04:21:08;100370.69;;;5.90;100.00
8051;BME280;4068;42.158;24.732;2023-03-01T04:23:33;100367.22;;;5.89;100.00
8051;BME280;4068;42.158;24.732;2023-03-01T04:26:00;100370.53;;;5.93;100.00
8051;BME280;4068;42.158;24.732;2023-03-01T04:28:31;100339.41;;;5.83;100.00
8051;BME280;4068;42.158;24.732;2023-03-01T04:31:06;100367.06;;;5.92;100.00
8051;BME280;4068;42.158;24.732;2023-03-01T04:33:39;100344.25;;;5.74;100.00
8051;BME280;4068;42.158;24.732;2023-03-01T04:36:05;100374.22;;;5.88;100.00
8051;BME280;4068;42.158;24.732;2023-03-01T04:38:34;100376.25;;;5.83;100.00
8051;BME280;4068;42.158;24.732;2023-03-01T04:41:00;100367.78;;;5.77;100.00
8051;BME280;4068;42.158;24.732;2023-03-01T04:43:25;100385.06;;;5.82;100.00
8051;BME280;4068;42.158;24.732;2023-03-01T04:45:51;100392.88;;;5.84;100.00
8051;BME280;4068;42.158;24.732;2023-03-01T04:48:16;100384.75;;;5.88;100.00
8051;BME280;4068;42.158;24.732;2023-03-01T04:50:41;100380.22;;;5.92;100.00
8051;BME280;4068;42.158;24.732;2023-03-01T04:53:07;100386.47;;;5.90;100.00
8051;BME280;4068;42.158;24.732;2023-03-01T04:55:33;100382.94;;;5.91;100.00
8051;BME280;4068;42.158;24.732;2023-03-01T04:57:58;100368.50;;;5.80;100.00
8051;BME280;4068;42.158;24.732;2023-03-01T05:00:24;100375.06;;;5.72;100.00
8051;BME280;4068;42.158;24.732;2023-03-01T05:02:55;100350.88;;;5.63;100.00
8051;BME280;4068;42.158;24.732;2023-03-01T05:05:26;100375.88;;;5.91;100.00
8051;BME280;4068;42.158;24.732;2023-03-01T05:07:57;100371.91;;;5.82;100.00
8051;BME280;4068;42.158;24.732;2023-03-01T05:10:24;100374.53;;;5.82;100.00
8051;BME280;4068;42.158;24.732;2023-03-01T05:12:50;100343.13;;;5.60;100.00
8051;BME280;4068;42.158;24.732;2023-03-01T05:15:17;100377.97;;;5.84;100.00
8051;BME280;4068;42.158;24.732;2023-03-01T05:17:43;100379.56;;;5.87;100.00
8051;BME280;4068;42.158;24.732;2023-03-01T05:20:09;100368.50;;;5.80;100.00
8051;BME280;4068;42.158;24.732;2023-03-01T05:22:35;100366.94;;;5.76;100.00
8051;BME280;4068;42.158;24.732;2023-03-01T05:25:02;100370.16;;;5.83;100.00
8051;BME280;4068;42.158;24.732;2023-03-01T05:27:28;100372.78;;;5.83;100.00
8051;BME280;4068;42.158;24.732;2023-03-01T05:29:55;100370.69;;;5.90;100.00
8051;BME280;4068;42.158;24.732;2023-03-01T05:32:20;100375.56;;;5.99;100.00
8051;BME280;4068;42.158;24.732;2023-03-01T05:34:46;100360.59;;;5.80;100.00
8051;BME280;4068;42.158;24.732;2023-03-01T05:37:12;100375.78;;;5.93;100.00
8051;BME280;4068;42.158;24.732;2023-03-01T05:39:39;100390.00;;;5.90;100.00
8051;BME280;4068;42.158;24.732;2023-03-01T05:42:04;100391.44;;;5.97;100.00
8051;BME280;4068;42.158;24.732;2023-03-01T05:44:30;100388.25;;;6.08;100.00
8051;BME280;4068;42.158;24.732;2023-03-01T05:46:56;100385.09;;;6.01;100.00
8051;BME280;4068;42.158;24.732;2023-03-01T05:49:22;100395.75;;;5.98;100.00
8051;BME280;4068;42.158;24.732;2023-03-01T05:51:51;100396.94;;;5.91;100.00
8051;BME280;4068;42.158;24.732;2023-03-01T05:54:17;100391.66;;;5.91;100.00
8051;BME280;4068;42.158;24.732;2023-03-01T05:56:42;100383.16;;;5.86;100.00
8051;BME280;4068;42.158;24.732;2023-03-01T05:59:08;100401.22;;;5.94;100.00
8051;BME280;4068;42.158;24.732;2023-03-01T06:01:35;100418.38;;;6.02;100.00
8051;BME280;4068;42.158;24.732;2023-03-01T06:04:02;100415.97;;;5.98;100.00
8051;BME280;4068;42.158;24.732;2023-03-01T06:06:28;100415.47;;;6.09;100.00
8051;BME280;4068;42.158;24.732;2023-03-01T06:08:53;100404.69;;;5.94;100.00
8051;BME280;4068;42.158;24.732;2023-03-01T06:11:20;100393.38;;;5.92;100.00
8051;BME280;4068;42.158;24.732;2023-03-01T06:13:45;100414.66;;;6.07;100.00
8051;BME280;4068;42.158;24.732;2023-03-01T06:16:11;100413.38;;;6.15;100.00
8051;BME280;4068;42.158;24.732;2023-03-01T06:18:38;100405.41;;;6.17;100.00
8051;BME280;4068;42.158;24.732;2023-03-01T06:21:04;100393.75;;;6.03;100.00
8051;BME280;4068;42.158;24.732;2023-03-01T06:23:30;100398.28;;;6.19;100.00
8051;BME280;4068;42.158;24.732;2023-03-01T06:25:56;100411.88;;;6.29;100.00
8051;BME280;4068;42.158;24.732;2023-03-01T06:28:22;100402.31;;;6.26;100.00
8051;BME280;4068;42.158;24.732;2023-03-01T06:30:49;100416.81;;;6.35;100.00
8051;BME280;4068;42.158;24.732;2023-03-01T06:33:14;100417.16;;;6.46;100.00
8051;BME280;4068;42.158;24.732;2023-03-01T06:35:40;100418.47;;;6.55;100.00
8051;BME280;4068;42.158;24.732;2023-03-01T06:38:06;100412.84;;;6.63;100.00
8051;BME280;4068;42.158;24.732;2023-03-01T06:40:32;100418.63;;;6.69;100.00
8051;BME280;4068;42.158;24.732;2023-03-01T06:43:00;100407.50;;;6.64;100.00
8051;BME280;4068;42.158;24.732;2023-03-01T06:45:26;100385.53;;;6.64;100.00
8051;BME280;4068;42.158;24.732;2023-03-01T06:47:51;100410.56;;;6.72;100.00
8051;BME280;4068;42.158;24.732;2023-03-01T06:50:17;100411.28;;;6.76;100.00
8051;BME280;4068;42.158;24.732;2023-03-01T06:52:43;100394.66;;;6.74;100.00
8051;BME280;4068;42.158;24.732;2023-03-01T06:55:10;100416.03;;;6.87;100.00
8051;BME280;4068;42.158;24.732;2023-03-01T06:57:36;100420.81;;;6.96;100.00
8051;BME280;4068;42.158;24.732;2023-03-01T07:00:04;100415.63;;;6.95;100.00
8051;BME280;4068;42.158;24.732;2023-03-01T07:02:30;100417.53;;;6.91;100.00
8051;BME280;4068;42.158;24.732;2023-03-01T07:04:56;100411.41;;;6.90;100.00
8051;BME280;4068;42.158;24.732;2023-03-01T07:07:21;100414.91;;;6.91;100.00
8051;BME280;4068;42.158;24.732;2023-03-01T07:09:48;100411.25;;;6.94;100.00
8051;BME280;4068;42.158;24.732;2023-03-01T07:12:13;100417.84;;;7.02;100.00
8051;BME280;4068;42.158;24.732;2023-03-01T07:14:39;100410.75;;;7.20;100.00
8051;BME280;4068;42.158;24.732;2023-03-01T07:17:05;100410.84;;;7.19;100.00
8051;BME280;4068;42.158;24.732;2023-03-01T07:19:30;100421.16;;;7.23;100.00
8051;BME280;4068;42.158;24.732;2023-03-01T07:21:56;100424.16;;;7.33;100.00
8051;BME280;4068;42.158;24.732;2023-03-01T07:24:22;100419.13;;;7.29;100.00
8051;BME280;4068;42.158;24.732;2023-03-01T07:26:49;100415.06;;;7.39;100.00
8051;BME280;4068;42.158;24.732;2023-03-01T07:29:15;100415.69;;;7.44;100.00
8051;BME280;4068;42.158;24.732;2023-03-01T07:31:41;100395.69;;;7.22;100.00
8051;BME280;4068;42.158;24.732;2023-03-01T07:34:06;100417.06;;;7.51;100.00
8051;BME280;4068;42.158;24.732;2023-03-01T07:36:32;100403.84;;;7.51;100.00
8051;BME280;4068;42.158;24.732;2023-03-01T07:38:58;100416.06;;;7.70;100.00
8051;BME280;4068;42.158;24.732;2023-03-01T07:41:23;100417.34;;;7.78;100.00
8051;BME280;4068;42.158;24.732;2023-03-01T07:43:48;100412.97;;;7.62;100.00
8051;BME280;4068;42.158;24.732;2023-03-01T07:46:14;100410.25;;;7.63;100.00
8051;BME280;4068;42.158;24.732;2023-03-01T07:48:39;100405.53;;;7.52;100.00
8051;BME280;4068;42.158;24.732;2023-03-01T07:51:05;100406.69;;;7.64;100.00
8051;BME280;4068;42.158;24.732;2023-03-01T07:53:31;100403.25;;;7.62;100.00
8051;BME280;4068;42.158;24.732;2023-03-01T07:56:10;100408.78;;;7.57;100.00
8051;BME280;4068;42.158;24.732;2023-03-01T07:58:37;100406.34;;;7.70;100.00
8051;BME280;4068;42.158;24.732;2023-03-01T08:01:08;100401.50;;;7.78;100.00
8051;BME280;4068;42.158;24.732;2023-03-01T08:03:34;100404.88;;;7.81;100.00
8051;BME280;4068;42.158;24.732;2023-03-01T08:06:02;100402.00;;;7.85;100.00
8051;BME280;4068;42.158;24.732;2023-03-01T08:08:27;100408.81;;;8.05;100.00
8051;BME280;4068;42.158;24.732;2023-03-01T08:10:56;100409.25;;;7.98;100.00
8051;BME280;4068;42.158;24.732;2023-03-01T08:13:22;100403.28;;;7.94;100.00
8051;BME280;4068;42.158;24.732;2023-03-01T08:15:51;100405.94;;;7.94;100.00
8051;BME280;4068;42.158;24.732;2023-03-01T08:18:18;100410.94;;;7.99;100.00
8051;BME280;4068;42.158;24.732;2023-03-01T08:20:43;100412.66;;;8.16;100.00
8051;BME280;4068;42.158;24.732;2023-03-01T08:23:09;100392.88;;;8.07;100.00
8051;BME280;4068;42.158;24.732;2023-03-01T08:25:34;100405.31;;;8.05;100.00
8051;BME280;4068;42.158;24.732;2023-03-01T08:28:00;100406.84;;;8.09;100.00
8051;BME280;4068;42.158;24.732;2023-03-01T08:30:25;100405.22;;;8.06;100.00
8051;BME280;4068;42.158;24.732;2023-03-01T08:32:51;100386.00;;;7.88;100.00
8051;BME280;4068;42.158;24.732;2023-03-01T08:35:17;100391.91;;;8.08;100.00
8051;BME280;4068;42.158;24.732;2023-03-01T08:37:42;100385.97;;;8.04;100.00
8051;BME280;4068;42.158;24.732;2023-03-01T08:40:08;100385.97;;;8.04;100.00
8051;BME280;4068;42.158;24.732;2023-03-01T08:42:36;100404.44;;;8.20;100.00
8051;BME280;4068;42.158;24.732;2023-03-01T08:45:04;100397.78;;;8.29;100.00
8051;BME280;4068;42.158;24.732;2023-03-01T08:47:30;100409.72;;;8.20;100.00
8051;BME280;4068;42.158;24.732;2023-03-01T08:49:55;100417.16;;;8.29;100.00
8051;BME280;4068;42.158;24.732;2023-03-01T08:52:21;100407.53;;;8.12;100.00
8051;BME280;4068;42.158;24.732;2023-03-01T08:54:48;100398.66;;;8.13;100.00
8051;BME280;4068;42.158;24.732;2023-03-01T08:57:14;100403.38;;;8.08;100.00
8051;BME280;4068;42.158;24.732;2023-03-01T08:59:39;100396.00;;;8.29;100.00
8051;BME280;4068;42.158;24.732;2023-03-01T09:02:11;100395.38;;;8.40;100.00
8051;BME280;4068;42.158;24.732;2023-03-01T09:04:37;100399.72;;;8.41;100.00
8051;BME280;4068;42.158;24.732;2023-03-01T09:07:03;100382.47;;;8.20;100.00
8051;BME280;4068;42.158;24.732;2023-03-01T09:09:28;100391.47;;;8.32;100.00
8051;BME280;4068;42.158;24.732;2023-03-01T09:11:54;100402.22;;;8.44;100.00
8051;BME280;4068;42.158;24.732;2023-03-01T09:14:19;100411.41;;;8.37;100.00
8051;BME280;4068;42.158;24.732;2023-03-01T09:16:44;100415.00;;;8.36;100.00
8051;BME280;4068;42.158;24.732;2023-03-01T09:19:10;100384.97;;;8.37;100.00
8051;BME280;4068;42.158;24.732;2023-03-01T09:21:37;100411.50;;;8.52;100.00
8051;BME280;4068;42.158;24.732;2023-03-01T09:24:02;100407.38;;;8.62;100.00
8051;BME280;4068;42.158;24.732;2023-03-01T09:26:28;100395.63;;;8.52;100.00
8051;BME280;4068;42.158;24.732;2023-03-01T09:28:55;100411.41;;;8.53;100.00
8051;BME280;4068;42.158;24.732;2023-03-01T09:31:22;100408.06;;;8.66;100.00
8051;BME280;4068;42.158;24.732;2023-03-01T09:33:49;100390.94;;;8.57;100.00
8051;BME280;4068;42.158;24.732;2023-03-01T09:36:17;100411.19;;;8.72;100.00
8051;BME280;4068;42.158;24.732;2023-03-01T09:38:44;100402.84;;;8.64;100.00
8051;BME280;4068;42.158;24.732;2023-03-01T09:43:46;100373.66;;;8.19;100.00
8051;BME280;4068;42.158;24.732;2023-03-01T09:46:14;100394.31;;;8.12;100.00
8051;BME280;4068;42.158;24.732;2023-03-01T09:48:59;100392.31;;;8.32;100.00
8051;BME280;4068;42.158;24.732;2023-03-01T09:51:32;100393.00;;;8.52;100.00
8051;BME280;4068;42.158;24.732;2023-03-01T09:53:58;100364.94;;;8.49;100.00
8051;BME280;4068;42.158;24.732;2023-03-01T09:56:40;100392.28;;;8.64;100.00
8051;BME280;4068;42.158;24.732;2023-03-01T10:07:53;100390.09;;;9.15;100.00
8051;BME280;4068;42.158;24.732;2023-03-01T10:10:33;100388.09;;;9.05;100.00
8051;BME280;4068;42.158;24.732;2023-03-01T10:13:17;100381.28;;;9.01;100.00
8051;BME280;4068;42.158;24.732;2023-03-01T10:15:49;100381.22;;;9.17;100.00
8051;BME280;4068;42.158;24.732;2023-03-01T10:18:22;100350.78;;;9.24;100.00
8051;BME280;4068;42.158;24.732;2023-03-01T10:21:09;100346.72;;;9.32;100.00
8051;BME280;4068;42.158;24.732;2023-03-01T10:23:37;100381.47;;;9.55;100.00
8051;BME280;4068;42.158;24.732;2023-03-01T10:29:05;100384.69;;;9.46;100.00
8051;BME280;4068;42.158;24.732;2023-03-01T10:31:47;100380.00;;;9.08;100.00
8051;BME280;4068;42.158;24.732;2023-03-01T10:36:44;100371.00;;;8.51;100.00
8051;BME280;4068;42.158;24.732;2023-03-01T10:39:21;100370.84;;;8.38;100.00
8051;BME280;4068;42.158;24.732;2023-03-01T10:41:59;100369.47;;;8.47;100.00
8051;BME280;4068;42.158;24.732;2023-03-01T10:44:42;100371.22;;;8.62;100.00
8051;BME280;4068;42.158;24.732;2023-03-01T10:47:18;100367.09;;;8.73;100.00
8051;BME280;4068;42.158;24.732;2023-03-01T10:50:19;100363.28;;;8.62;100.00
8051;BME280;4068;42.158;24.732;2023-03-01T10:52:57;100342.31;;;8.59;100.00
8051;BME280;4068;42.158;24.732;2023-03-01T10:58:21;100334.19;;;8.48;100.00
8051;BME280;4068;42.158;24.732;2023-03-01T11:03:19;100335.50;;;8.39;100.00
8051;BME280;4068;42.158;24.732;2023-03-01T11:08:39;100334.13;;;8.78;100.00
8051;BME280;4068;42.158;24.732;2023-03-01T11:11:33;100326.59;;;8.87;100.00
8051;BME280;4068;42.158;24.732;2023-03-01T11:14:16;100321.19;;;8.88;100.00
8051;BME280;4068;42.158;24.732;2023-03-01T11:16:45;100322.13;;;9.02;100.00
8051;BME280;4068;42.158;24.732;2023-03-01T11:24:15;100283.31;;;8.43;100.00
8051;BME280;4068;42.158;24.732;2023-03-01T11:26:45;100310.66;;;8.58;100.00
8051;BME280;4068;42.158;24.732;2023-03-01T11:29:26;100293.69;;;8.76;100.00
8051;BME280;4068;42.158;24.732;2023-03-01T11:31:55;100298.81;;;8.79;100.00
8051;BME280;4068;42.158;24.732;2023-03-01T11:37:01;100283.22;;;8.89;100.00
8051;BME280;4068;42.158;24.732;2023-03-01T11:39:49;100287.34;;;8.93;100.00
8051;BME280;4068;42.158;24.732;2023-03-01T11:42:19;100270.94;;;8.88;100.00
8051;BME280;4068;42.158;24.732;2023-03-01T11:44:53;100286.72;;;8.90;100.00
8051;BME280;4068;42.158;24.732;2023-03-01T11:48:04;100259.50;;;9.02;100.00
8051;BME280;4068;42.158;24.732;2023-03-01T11:50:44;100280.03;;;9.40;100.00
8051;BME280;4068;42.158;24.732;2023-03-01T11:56:40;100279.03;;;9.14;100.00
8051;BME280;4068;42.158;24.732;2023-03-01T11:59:23;100280.44;;;9.20;100.00
8051;BME280;4068;42.158;24.732;2023-03-01T12:04:49;100280.44;;;8.76;100.00
8051;BME280;4068;42.158;24.732;2023-03-01T12:10:22;100276.13;;;8.90;100.00
8051;BME280;4068;42.158;24.732;2023-03-01T12:13:22;100273.66;;;9.01;100.00
8051;BME280;4068;42.158;24.732;2023-03-01T12:22:07;100267.97;;;9.07;100.00
8051;BME280;4068;42.158;24.732;2023-03-01T12:30:16;100251.91;;;9.10;100.00
8051;BME280;4068;42.158;24.732;2023-03-01T12:33:02;100250.66;;;9.16;100.00
8051;BME280;4068;42.158;24.732;2023-03-01T12:41:04;100252.97;;;9.08;100.00
8051;BME280;4068;42.158;24.732;2023-03-01T12:49:12;100258.59;;;9.16;100.00
8051;BME280;4068;42.158;24.732;2023-03-01T12:51:40;100247.94;;;9.03;100.00
8051;BME280;4068;42.158;24.732;2023-03-01T12:54:16;100258.16;;;8.95;100.00
8051;BME280;4068;42.158;24.732;2023-03-01T12:56:46;100242.38;;;8.93;100.00
8051;BME280;4068;42.158;24.732;2023-03-01T13:02:36;100214.91;;;8.81;100.00
8051;BME280;4068;42.158;24.732;2023-03-01T13:10:33;100258.34;;;8.77;100.00
8051;BME280;4068;42.158;24.732;2023-03-01T13:13:13;100230.97;;;8.64;100.00
8051;BME280;4068;42.158;24.732;2023-03-01T13:15:40;100224.66;;;8.67;100.00
8051;BME280;4068;42.158;24.732;2023-03-01T13:28:52;100255.44;;;8.68;100.00
8051;BME280;4068;42.158;24.732;2023-03-01T13:33:48;100251.16;;;8.51;100.00
8051;BME280;4068;42.158;24.732;2023-03-01T13:38:56;100246.06;;;8.48;100.00
8051;BME280;4068;42.158;24.732;2023-03-01T13:44:33;100253.41;;;8.28;100.00
8051;BME280;4068;42.158;24.732;2023-03-01T13:49:59;100245.38;;;8.29;100.00
8051;BME280;4068;42.158;24.732;2023-03-01T13:52:43;100248.84;;;8.30;100.00
8051;BME280;4068;42.158;24.732;2023-03-01T13:55:43;100240.66;;;8.35;100.00
8051;BME280;4068;42.158;24.732;2023-03-01T13:58:43;100250.78;;;8.42;100.00
8051;BME280;4068;42.158;24.732;2023-03-01T14:01:30;100252.78;;;8.53;100.00
8051;BME280;4068;42.158;24.732;2023-03-01T14:03:56;100251.91;;;8.38;100.00
8051;BME280;4068;42.158;24.732;2023-03-01T14:06:30;100246.03;;;8.33;100.00
8051;BME280;4068;42.158;24.732;2023-03-01T14:20:21;100232.59;;;7.77;100.00
8051;BME280;4068;42.158;24.732;2023-03-01T14:22:48;100221.16;;;7.76;100.00
8051;BME280;4068;42.158;24.732;2023-03-01T14:27:40;100237.53;;;7.98;100.00
8051;BME280;4068;42.158;24.732;2023-03-01T14:30:13;100240.09;;;7.99;100.00
8051;BME280;4068;42.158;24.732;2023-03-01T14:32:40;100241.41;;;7.92;100.00
8051;BME280;4068;42.158;24.732;2023-03-01T14:35:28;100240.81;;;7.87;100.00
8051;BME280;4068;42.158;24.732;2023-03-01T14:37:54;100236.53;;;7.70;100.00
8051;BME280;4068;42.158;24.732;2023-03-01T14:40:27;100236.00;;;7.63;100.00
8051;BME280;4068;42.158;24.732;2023-03-01T14:42:54;100238.41;;;7.52;100.00
8051;BME280;4068;42.158;24.732;2023-03-01T14:45:20;100242.06;;;7.49;100.00
8051;BME280;4068;42.158;24.732;2023-03-01T14:47:46;100236.22;;;7.44;100.00
8051;BME280;4068;42.158;24.732;2023-03-01T14:52:46;100229.88;;;7.47;100.00
8051;BME280;4068;42.158;24.732;2023-03-01T14:55:17;100228.22;;;7.46;100.00
8051;BME280;4068;42.158;24.732;2023-03-01T14:57:44;100213.91;;;7.34;100.00
8051;BME280;4068;42.158;24.732;2023-03-01T15:00:17;100236.47;;;7.55;100.00
8051;BME280;4068;42.158;24.732;2023-03-01T15:02:46;100234.47;;;7.59;100.00
8051;BME280;4068;42.158;24.732;2023-03-01T15:05:14;100237.44;;;7.69;100.00
8051;BME280;4068;42.158;24.732;2023-03-01T15:07:42;100247.66;;;7.75;100.00